sensor_id;sensor_type;location;lat;lon;timestamp;pressure;altitude;pressure_sealevel;temperature;humidity
36242;BME280;22283;42.748;12.732;2022-09-09T00:02:28;97919.63;;;19.89;100.00
36242;BME280;22283;42.748;12.732;2022-09-09T00:07:48;97908.59;;;19.84;100.00
36242;BME280;22283;42.748;12.732;2022-09-09T00:13:18;97938.81;;;19.78;100.00
36242;BME280;22283;42.748;12.732;2022-09-09T00:18:31;97911.22;;;19.92;100.00
36242;BME280;22283;42.748;12.732;2022-09-09T00:23:50;97945.59;;;19.97;100.00
36242;BME280;22283;42.748;12.732;2022-09-09T00:30:00;97934.13;;;19.80;100.00
36242;BME280;22283;42.748;12.732;2022-09-09T00:34:52;97971.69;;;19.80;100.00
36242;BME280;22283;42.748;12.732;2022-09-09T00:39:56;97978.06;;;19.79;100.00
36242;BME280;22283;42.748;12.732;2022-09-09T01:01:12;97927.38;;;19.84;100.00
36242;BME280;22283;42.748;12.732;2022-09-09T01:16:47;97918.41;;;19.69;100.00
36242;BME280;22283;42.748;12.732;2022-09-09T01:22:03;97911.34;;;19.59;100.00
36242;BME280;22283;42.748;12.732;2022-09-09T01:27:10;97904.31;;;19.58;100.00
36242;BME280;22283;42.748;12.732;2022-09-09T01:32:40;97892.41;;;19.61;100.00
36242;BME280;22283;42.748;12.732;2022-09-09T01:37:43;97890.88;;;19.58;100.00
36242;BME280;22283;42.748;12.732;2022-09-09T01:42:44;97873.28;;;19.56;100.00
36242;BME280;22283;42.748;12.732;2022-09-09T01:47:45;97858.53;;;19.52;100.00
36242;BME280;22283;42.748;12.732;2022-09-09T01:52:59;97842.28;;;19.53;100.00
36242;BME280;22283;42.748;12.732;2022-09-09T02:03:28;97871.84;;;19.45;100.00
36242;BME280;22283;42.748;12.732;2022-09-09T02:08:50;97875.66;;;19.51;100.00
36242;BME280;22283;42.748;12.732;2022-09-09T02:13:56;97881.03;;;19.51;100.00
36242;BME280;22283;42.748;12.732;2022-09-09T02:19:08;97867.31;;;19.46;100.00
36242;BME280;22283;42.748;12.732;2022-09-09T02:24:22;97873.84;;;19.43;100.00
36242;BME280;22283;42.748;12.732;2022-09-09T02:29:41;97857.75;;;19.43;100.00
36242;BME280;22283;42.748;12.732;2022-09-09T02:34:47;97837.13;;;19.44;100.00
36242;BME280;22283;42.748;12.732;2022-09-09T02:39:48;97838.81;;;19.45;100.00
36242;BME280;22283;42.748;12.732;2022-09-09T02:44:53;97825.03;;;19.48;100.00
36242;BME280;22283;42.748;12.732;2022-09-09T02:55:48;97827.25;;;19.44;100.00
36242;BME280;22283;42.748;12.732;2022-09-09T03:00:55;97812.69;;;19.38;100.00
36242;BME280;22283;42.748;12.732;2022-09-09T03:05:59;97811.16;;;19.44;100.00
36242;BME280;22283;42.748;12.732;2022-09-09T03:11:01;97811.16;;;19.44;100.00
36242;BME280;22283;42.748;12.732;2022-09-09T03:16:04;97816.53;;;19.44;100.00
36242;BME280;22283;42.748;12.732;2022-09-09T03:21:10;97818.19;;;19.45;100.00
36242;BME280;22283;42.748;12.732;2022-09-09T03:26:12;97821.50;;;19.47;100.00
36242;BME280;22283;42.748;12.732;2022-09-09T03:31:19;97820.53;;;19.48;100.00
36242;BME280;22283;42.748;12.732;2022-09-09T03:36:20;97821.22;;;19.42;100.00
36242;BME280;22283;42.748;12.732;2022-09-09T03:41:22;97821.56;;;19.39;100.00
36242;BME280;22283;42.748;12.732;2022-09-09T03:46:25;97829.59;;;19.39;100.00
36242;BME280;22283;42.748;12.732;2022-09-09T03:51:26;97829.03;;;19.52;100.00
36242;BME280;22283;42.748;12.732;2022-09-09T03:56:27;97831.03;;;19.58;100.00
36242;BME280;22283;42.748;12.732;2022-09-09T04:01:29;97825.88;;;19.48;100.00
36242;BME280;22283;42.748;12.732;2022-09-09T04:06:30;97831.59;;;19.45;100.00
36242;BME280;22283;42.748;12.732;2022-09-09T04:11:31;97836.19;;;19.36;100.00
36242;BME280;22283;42.748;12.732;2022-09-09T04:16:33;97838.91;;;19.28;100.00
36242;BME280;22283;42.748;12.732;2022-09-09T04:21:36;97836.22;;;19.28;100.00
36242;BME280;22283;42.748;12.732;2022-09-09T04:26:38;97834.72;;;19.26;100.00
36242;BME280;22283;42.748;12.732;2022-09-09T04:31:39;97839.72;;;19.29;100.00
36242;BME280;22283;42.748;12.732;2022-09-09T04:36:43;97828.09;;;19.45;100.00
36242;BME280;22283;42.748;12.732;2022-09-09T04:41:44;97823.25;;;19.32;100.00
36242;BME280;22283;42.748;12.732;2022-09-09T04:46:45;97825.78;;;19.33;100.00
36242;BME280;22283;42.748;12.732;2022-09-09T04:51:46;97819.59;;;19.33;100.00
36242;BME280;22283;42.748;12.732;2022-09-09T04:56:51;97826.63;;;19.34;100.00
36242;BME280;22283;42.748;12.732;2022-09-09T05:01:53;97827.84;;;19.54;100.00
36242;BME280;22283;42.748;12.732;2022-09-09T05:06:56;97822.41;;;19.71;100.00
36242;BME280;22283;42.748;12.732;2022-09-09T05:11:58;97828.41;;;19.81;100.00
36242;BME280;22283;42.748;12.732;2022-09-09T05:17:04;97826.84;;;20.09;100.00
36242;BME280;22283;42.748;12.732;2022-09-09T05:22:07;97843.13;;;20.31;100.00
36242;BME280;22283;42.748;12.732;2022-09-09T05:27:15;97851.41;;;20.44;100.00
36242;BME280;22283;42.748;12.732;2022-09-09T05:32:16;97851.22;;;20.69;100.00
36242;BME280;22283;42.748;12.732;2022-09-09T05:37:20;97853.75;;;20.85;97.30
36242;BME280;22283;42.748;12.732;2022-09-09T05:42:21;97850.50;;;20.90;96.07
36242;BME280;22283;42.748;12.732;2022-09-09T05:47:22;97863.13;;;21.19;96.39
36242;BME280;22283;42.748;12.732;2022-09-09T05:52:22;97859.84;;;21.68;92.29
36242;BME280;22283;42.748;12.732;2022-09-09T05:57:24;97860.41;;;21.99;89.49
36242;BME280;22283;42.748;12.732;2022-09-09T06:02:25;97847.69;;;21.93;90.98
36242;BME280;22283;42.748;12.732;2022-09-09T06:07:26;97849.72;;;22.27;89.50
36242;BME280;22283;42.748;12.732;2022-09-09T06:12:28;97843.41;;;22.91;88.09
36242;BME280;22283;42.748;12.732;2022-09-09T06:17:29;97824.81;;;23.44;83.78
36242;BME280;22283;42.748;12.732;2022-09-09T06:22:31;97841.84;;;23.93;80.81
36242;BME280;22283;42.748;12.732;2022-09-09T06:27:32;97845.41;;;24.26;79.18
36242;BME280;22283;42.748;12.732;2022-09-09T06:32:33;97851.09;;;24.51;79.60
36242;BME280;22283;42.748;12.732;2022-09-09T06:37:35;97863.50;;;24.26;78.74
36242;BME280;22283;42.748;12.732;2022-09-09T06:42:37;97857.41;;;23.91;78.86
36242;BME280;22283;42.748;12.732;2022-09-09T06:47:55;97889.28;;;23.26;83.81
36242;BME280;22283;42.748;12.732;2022-09-09T06:52:56;97893.63;;;22.92;86.48
36242;BME280;22283;42.748;12.732;2022-09-09T06:57:57;97892.09;;;22.33;95.15
36242;BME280;22283;42.748;12.732;2022-09-09T07:02:58;97901.34;;;22.09;99.14
36242;BME280;22283;42.748;12.732;2022-09-09T07:07:59;97909.84;;;22.71;94.84
36242;BME280;22283;42.748;12.732;2022-09-09T07:13:01;97913.69;;;22.62;93.40
36242;BME280;22283;42.748;12.732;2022-09-09T07:18:02;97909.75;;;22.64;91.54
36242;BME280;22283;42.748;12.732;2022-09-09T07:23:04;97912.66;;;22.63;90.84
36242;BME280;22283;42.748;12.732;2022-09-09T07:28:05;97918.63;;;22.79;89.57
36242;BME280;22283;42.748;12.732;2022-09-09T07:33:09;97926.75;;;23.07;87.90
36242;BME280;22283;42.748;12.732;2022-09-09T07:38:13;97934.25;;;23.12;85.89
36242;BME280;22283;42.748;12.732;2022-09-09T07:43:16;97941.66;;;23.03;85.48
36242;BME280;22283;42.748;12.732;2022-09-09T07:48:20;97928.97;;;22.97;86.59
36242;BME280;22283;42.748;12.732;2022-09-09T07:53:21;97929.66;;;23.06;84.76
36242;BME280;22283;42.748;12.732;2022-09-09T07:58:23;97952.94;;;23.14;84.72
36242;BME280;22283;42.748;12.732;2022-09-09T08:03:24;97950.25;;;23.14;84.83
36242;BME280;22283;42.748;12.732;2022-09-09T08:08:25;97950.09;;;23.22;82.47
36242;BME280;22283;42.748;12.732;2022-09-09T08:13:25;97963.28;;;23.38;83.39
36242;BME280;22283;42.748;12.732;2022-09-09T08:18:27;97962.94;;;23.76;80.62
36242;BME280;22283;42.748;12.732;2022-09-09T08:23:29;97977.75;;;23.59;85.63
36242;BME280;22283;42.748;12.732;2022-09-09T08:28:30;97971.59;;;23.09;89.34
36242;BME280;22283;42.748;12.732;2022-09-09T08:33:31;97984.44;;;22.85;90.13
36242;BME280;22283;42.748;12.732;2022-09-09T08:38:33;97974.28;;;22.87;90.12
36242;BME280;22283;42.748;12.732;2022-09-09T08:43:34;97980.91;;;23.34;87.40
36242;BME280;22283;42.748;12.732;2022-09-09T08:53:57;97968.25;;;24.85;79.69
36242;BME280;22283;42.748;12.732;2022-09-09T08:59:04;97957.06;;;25.15;77.90
36242;BME280;22283;42.748;12.732;2022-09-09T09:04:29;97958.66;;;25.56;76.72
36242;BME280;22283;42.748;12.732;2022-09-09T09:14:38;97931.50;;;25.82;71.59
36242;BME280;22283;42.748;12.732;2022-09-09T09:19:43;97931.34;;;26.15;70.02
36242;BME280;22283;42.748;12.732;2022-09-09T09:25:10;97935.56;;;26.43;70.81
36242;BME280;22283;42.748;12.732;2022-09-09T09:30:17;97936.09;;;26.65;68.41
36242;BME280;22283;42.748;12.732;2022-09-09T09:35:19;97917.13;;;26.65;67.91
36242;BME280;22283;42.748;12.732;2022-09-09T09:40:22;97914.53;;;26.38;69.77
36242;BME280;22283;42.748;12.732;2022-09-09T09:45:34;97910.34;;;26.42;69.41
36242;BME280;22283;42.748;12.732;2022-09-09T09:50:58;97890.28;;;26.43;71.43
36242;BME280;22283;42.748;12.732;2022-09-09T09:56:06;97903.16;;;26.61;69.25
36242;BME280;22283;42.748;12.732;2022-09-09T10:01:24;97887.41;;;26.07;73.80
36242;BME280;22283;42.748;12.732;2022-09-09T10:06:36;97869.56;;;26.56;70.52
36242;BME280;22283;42.748;12.732;2022-09-09T10:11:48;97874.28;;;27.35;68.73
36242;BME280;22283;42.748;12.732;2022-09-09T10:22:24;97861.66;;;28.26;59.45
36242;BME280;22283;42.748;12.732;2022-09-09T10:27:52;97854.31;;;28.57;56.96
36242;BME280;22283;42.748;12.732;2022-09-09T10:43:20;97855.91;;;29.11;55.42
36242;BME280;22283;42.748;12.732;2022-09-09T10:48:40;97862.25;;;29.40;51.77
36242;BME280;22283;42.748;12.732;2022-09-09T10:58:49;97858.03;;;29.21;46.15
36242;BME280;22283;42.748;12.732;2022-09-09T11:04:09;97856.81;;;29.40;43.20
36242;BME280;22283;42.748;12.732;2022-09-09T11:09:19;97845.59;;;29.77;42.47
36242;BME280;22283;42.748;12.732;2022-09-09T11:19:25;97851.72;;;30.13;39.98
36242;BME280;22283;42.748;12.732;2022-09-09T11:24:32;97850.22;;;30.17;39.59
36242;BME280;22283;42.748;12.732;2022-09-09T11:35:01;97856.97;;;30.14;40.14
36242;BME280;22283;42.748;12.732;2022-09-09T11:45:23;97845.63;;;30.06;40.15
36242;BME280;22283;42.748;12.732;2022-09-09T11:55:30;97849.19;;;30.06;43.15
36242;BME280;22283;42.748;12.732;2022-09-09T12:00:39;97840.56;;;30.26;42.88
36242;BME280;22283;42.748;12.732;2022-09-09T12:05:44;97833.44;;;29.97;45.55
36242;BME280;22283;42.748;12.732;2022-09-09T12:10:57;97832.34;;;29.69;45.19
36242;BME280;22283;42.748;12.732;2022-09-09T12:15:59;97836.06;;;29.92;46.09
36242;BME280;22283;42.748;12.732;2022-09-09T12:21:05;97827.28;;;30.47;43.82
36242;BME280;22283;42.748;12.732;2022-09-09T12:26:36;97831.19;;;29.65;43.76
36242;BME280;22283;42.748;12.732;2022-09-09T12:37:02;97840.94;;;29.37;46.59
36242;BME280;22283;42.748;12.732;2022-09-09T12:42:04;97833.63;;;29.26;49.96
36242;BME280;22283;42.748;12.732;2022-09-09T12:47:05;97835.00;;;29.40;48.27
36242;BME280;22283;42.748;12.732;2022-09-09T12:52:17;97825.34;;;29.73;36.72
36242;BME280;22283;42.748;12.732;2022-09-09T12:57:23;97831.56;;;29.85;33.67
36242;BME280;22283;42.748;12.732;2022-09-09T13:02:26;97835.75;;;30.05;33.34
36242;BME280;22283;42.748;12.732;2022-09-09T13:07:28;97843.38;;;30.03;33.23
36242;BME280;22283;42.748;12.732;2022-09-09T13:12:29;97839.56;;;29.75;31.49
36242;BME280;22283;42.748;12.732;2022-09-09T13:17:30;97816.81;;;29.70;32.73
36242;BME280;22283;42.748;12.732;2022-09-09T13:22:36;97822.81;;;29.83;32.55
36242;BME280;22283;42.748;12.732;2022-09-09T13:27:39;97828.97;;;29.62;33.65
36242;BME280;22283;42.748;12.732;2022-09-09T13:32:40;97809.72;;;29.69;32.25
36242;BME280;22283;42.748;12.732;2022-09-09T13:37:40;97817.38;;;29.83;30.48
36242;BME280;22283;42.748;12.732;2022-09-09T13:42:41;97809.03;;;29.61;30.92
36242;BME280;22283;42.748;12.732;2022-09-09T13:47:43;97819.84;;;29.45;31.37
36242;BME280;22283;42.748;12.732;2022-09-09T13:52:43;97832.41;;;29.34;31.79
36242;BME280;22283;42.748;12.732;2022-09-09T13:57:51;97835.63;;;29.43;32.58
36242;BME280;22283;42.748;12.732;2022-09-09T14:02:52;97829.38;;;29.30;33.19
36242;BME280;22283;42.748;12.732;2022-09-09T14:07:55;97827.59;;;29.12;33.05
36242;BME280;22283;42.748;12.732;2022-09-09T14:12:56;97834.47;;;29.15;33.19
36242;BME280;22283;42.748;12.732;2022-09-09T14:17:56;97833.97;;;28.95;33.27
36242;BME280;22283;42.748;12.732;2022-09-09T14:22:59;97842.50;;;28.98;33.79
36242;BME280;22283;42.748;12.732;2022-09-09T14:28:00;97837.41;;;29.02;33.84
36242;BME280;22283;42.748;12.732;2022-09-09T14:33:00;97836.97;;;29.05;34.05
36242;BME280;22283;42.748;12.732;2022-09-09T14:38:02;97842.88;;;29.02;33.74
36242;BME280;22283;42.748;12.732;2022-09-09T14:43:04;97849.50;;;29.06;33.23
36242;BME280;22283;42.748;12.732;2022-09-09T14:48:05;97848.91;;;28.92;34.31
36242;BME280;22283;42.748;12.732;2022-09-09T14:53:07;97861.78;;;28.73;35.09
36242;BME280;22283;42.748;12.732;2022-09-09T14:58:09;97854.06;;;28.70;35.76
36242;BME280;22283;42.748;12.732;2022-09-09T15:03:09;97852.53;;;28.74;35.31
36242;BME280;22283;42.748;12.732;2022-09-09T15:08:11;97860.22;;;28.54;35.62
36242;BME280;22283;42.748;12.732;2022-09-09T15:13:11;97869.47;;;28.34;36.90
36242;BME280;22283;42.748;12.732;2022-09-09T15:18:13;97854.59;;;28.07;36.49
36242;BME280;22283;42.748;12.732;2022-09-09T15:23:14;97866.06;;;27.79;37.94
36242;BME280;22283;42.748;12.732;2022-09-09T15:28:19;97856.06;;;27.91;38.37
36242;BME280;22283;42.748;12.732;2022-09-09T15:33:21;97859.00;;;28.08;38.43
36242;BME280;22283;42.748;12.732;2022-09-09T15:38:22;97860.09;;;27.88;38.48
36242;BME280;22283;42.748;12.732;2022-09-09T15:43:23;97862.22;;;27.50;39.45
36242;BME280;22283;42.748;12.732;2022-09-09T15:48:30;97859.38;;;27.44;40.96
36242;BME280;22283;42.748;12.732;2022-09-09T15:53:32;97866.59;;;27.69;39.92
36242;BME280;22283;42.748;12.732;2022-09-09T15:58:34;97870.69;;;27.78;39.99
36242;BME280;22283;42.748;12.732;2022-09-09T16:03:37;97870.72;;;27.71;39.84
36242;BME280;22283;42.748;12.732;2022-09-09T16:08:41;97865.19;;;27.48;40.43
36242;BME280;22283;42.748;12.732;2022-09-09T16:13:44;97871.13;;;27.38;41.36
36242;BME280;22283;42.748;12.732;2022-09-09T16:18:47;97873.75;;;27.27;41.56
36242;BME280;22283;42.748;12.732;2022-09-09T16:23:49;97869.31;;;27.14;41.94
36242;BME280;22283;42.748;12.732;2022-09-09T16:28:50;97875.28;;;26.97;42.26
36242;BME280;22283;42.748;12.732;2022-09-09T16:33:51;97876.72;;;26.75;42.92
36242;BME280;22283;42.748;12.732;2022-09-09T16:39:03;97881.47;;;26.55;43.13
36242;BME280;22283;42.748;12.732;2022-09-09T16:44:07;97887.19;;;26.40;43.51
36242;BME280;22283;42.748;12.732;2022-09-09T16:49:11;97891.69;;;26.21;43.57
36242;BME280;22283;42.748;12.732;2022-09-09T16:54:12;97890.97;;;26.00;44.20
36242;BME280;22283;42.748;12.732;2022-09-09T16:59:16;97896.72;;;25.79;45.07
36242;BME280;22283;42.748;12.732;2022-09-09T17:04:22;97899.88;;;25.63;45.93
36242;BME280;22283;42.748;12.732;2022-09-09T17:09:25;97897.41;;;25.55;46.96
36242;BME280;22283;42.748;12.732;2022-09-09T17:14:29;97904.53;;;25.29;48.71
36242;BME280;22283;42.748;12.732;2022-09-09T17:19:31;97903.09;;;25.07;49.10
36242;BME280;22283;42.748;12.732;2022-09-09T17:24:31;97907.06;;;24.91;49.50
36242;BME280;22283;42.748;12.732;2022-09-09T17:29:34;97916.63;;;24.80;49.66
36242;BME280;22283;42.748;12.732;2022-09-09T17:34:36;97910.78;;;24.70;53.98
36242;BME280;22283;42.748;12.732;2022-09-09T17:39:38;97919.53;;;24.59;50.99
36242;BME280;22283;42.748;12.732;2022-09-09T17:44:38;97931.16;;;24.46;52.23
36242;BME280;22283;42.748;12.732;2022-09-09T17:49:40;97938.59;;;24.37;53.68
36242;BME280;22283;42.748;12.732;2022-09-09T17:54:40;97954.56;;;24.19;55.71
36242;BME280;22283;42.748;12.732;2022-09-09T17:59:41;97953.03;;;23.96;57.43
36242;BME280;22283;42.748;12.732;2022-09-09T18:04:42;97960.09;;;23.63;59.06
36242;BME280;22283;42.748;12.732;2022-09-09T18:09:43;97973.41;;;23.29;60.09
36242;BME280;22283;42.748;12.732;2022-09-09T18:14:43;97978.00;;;23.07;60.05
36242;BME280;22283;42.748;12.732;2022-09-09T18:19:44;97978.03;;;22.86;60.11
36242;BME280;22283;42.748;12.732;2022-09-09T18:24:45;97986.41;;;22.76;59.88
36242;BME280;22283;42.748;12.732;2022-09-09T18:29:47;97987.22;;;22.70;59.90
36242;BME280;22283;42.748;12.732;2022-09-09T18:34:48;97990.22;;;22.61;60.24
36242;BME280;22283;42.748;12.732;2022-09-09T18:39:50;97996.06;;;22.64;64.44
36242;BME280;22283;42.748;12.732;2022-09-09T18:44:52;98007.03;;;22.84;61.51
36242;BME280;22283;42.748;12.732;2022-09-09T18:49:53;98004.91;;;22.79;62.23
36242;BME280;22283;42.748;12.732;2022-09-09T18:54:53;98014.81;;;22.72;61.83
36242;BME280;22283;42.748;12.732;2022-09-09T18:59:54;98021.06;;;22.73;64.47
36242;BME280;22283;42.748;12.732;2022-09-09T19:04:54;98023.63;;;22.81;63.45
36242;BME280;22283;42.748;12.732;2022-09-09T19:09:55;98026.50;;;22.79;63.64
36242;BME280;22283;42.748;12.732;2022-09-09T19:14:56;98033.19;;;22.83;63.36
36242;BME280;22283;42.748;12.732;2022-09-09T19:19:56;98045.13;;;22.74;62.75
36242;BME280;22283;42.748;12.732;2022-09-09T19:24:57;98056.06;;;22.51;63.86
36242;BME280;22283;42.748;12.732;2022-09-09T19:30:03;98054.28;;;22.58;63.78
36242;BME280;22283;42.748;12.732;2022-09-09T19:35:04;98058.50;;;22.46;63.96
36242;BME280;22283;42.748;12.732;2022-09-09T19:40:05;98053.44;;;22.22;63.84
36242;BME280;22283;42.748;12.732;2022-09-09T19:45:07;98058.88;;;22.43;64.63
36242;BME280;22283;42.748;12.732;2022-09-09T19:50:09;98058.72;;;22.66;63.54
36242;BME280;22283;42.748;12.732;2022-09-09T19:55:10;98061.69;;;22.71;63.45
36242;BME280;22283;42.748;12.732;2022-09-09T20:00:11;98063.44;;;22.79;62.84
36242;BME280;22283;42.748;12.732;2022-09-09T20:05:12;98055.91;;;22.74;62.95
36242;BME280;22283;42.748;12.732;2022-09-09T20:10:13;98053.94;;;22.47;64.55
36242;BME280;22283;42.748;12.732;2022-09-09T20:15:13;98046.81;;;22.39;65.14
36242;BME280;22283;42.748;12.732;2022-09-09T20:20:14;98050.38;;;22.10;65.71
36242;BME280;22283;42.748;12.732;2022-09-09T20:25:14;98042.56;;;21.71;67.44
36242;BME280;22283;42.748;12.732;2022-09-09T20:30:15;98046.94;;;21.34;69.24
36242;BME280;22283;42.748;12.732;2022-09-09T20:35:16;98047.63;;;21.13;70.29
36242;BME280;22283;42.748;12.732;2022-09-09T20:40:17;98033.06;;;21.07;70.63
36242;BME280;22283;42.748;12.732;2022-09-09T20:45:19;98028.50;;;20.85;72.84
36242;BME280;22283;42.748;12.732;2022-09-09T20:50:20;98024.50;;;20.58;74.22
36242;BME280;22283;42.748;12.732;2022-09-09T20:55:21;98038.00;;;20.42;74.69
36242;BME280;22283;42.748;12.732;2022-09-09T21:00:21;98030.13;;;20.40;74.42
36242;BME280;22283;42.748;12.732;2022-09-09T21:05:23;98026.13;;;20.36;75.16
36242;BME280;22283;42.748;12.732;2022-09-09T21:10:25;98039.97;;;20.25;76.23
36242;BME280;22283;42.748;12.732;2022-09-09T21:15:26;98044.69;;;20.14;76.84
36242;BME280;22283;42.748;12.732;2022-09-09T21:20:27;98049.94;;;20.08;77.80
36242;BME280;22283;42.748;12.732;2022-09-09T21:25:28;98055.50;;;19.98;78.08
36242;BME280;22283;42.748;12.732;2022-09-09T21:30:28;98053.53;;;19.92;77.92
36242;BME280;22283;42.748;12.732;2022-09-09T21:35:33;98050.47;;;19.95;78.70
36242;BME280;22283;42.748;12.732;2022-09-09T21:40:37;98054.22;;;19.86;79.26
36242;BME280;22283;42.748;12.732;2022-09-09T21:45:39;98050.91;;;19.68;80.74
36242;BME280;22283;42.748;12.732;2022-09-09T21:50:43;98057.78;;;19.54;81.52
36242;BME280;22283;42.748;12.732;2022-09-09T21:55:44;98056.63;;;19.48;81.92
36242;BME280;22283;42.748;12.732;2022-09-09T22:00:46;98060.97;;;19.49;81.00
36242;BME280;22283;42.748;12.732;2022-09-09T22:05:47;98060.66;;;19.44;81.10
36242;BME280;22283;42.748;12.732;2022-09-09T22:10:47;98057.97;;;19.28;82.13
36242;BME280;22283;42.748;12.732;2022-09-09T22:15:48;98053.13;;;19.15;82.95
36242;BME280;22283;42.748;12.732;2022-09-09T22:20:50;98043.91;;;19.09;82.79
36242;BME280;22283;42.748;12.732;2022-09-09T22:25:51;98045.91;;;19.24;80.43
36242;BME280;22283;42.748;12.732;2022-09-09T22:30:54;98048.94;;;19.29;79.66
36242;BME280;22283;42.748;12.732;2022-09-09T22:35:55;98045.59;;;19.10;81.09
36242;BME280;22283;42.748;12.732;2022-09-09T22:40:56;98041.56;;;18.98;81.75
36242;BME280;22283;42.748;12.732;2022-09-09T22:45:58;98029.31;;;19.04;80.97
36242;BME280;22283;42.748;12.732;2022-09-09T22:51:03;98027.00;;;19.09;79.75
36242;BME280;22283;42.748;12.732;2022-09-09T22:56:06;98025.16;;;18.85;80.61
36242;BME280;22283;42.748;12.732;2022-09-09T23:01:18;98021.63;;;18.76;81.28
36242;BME280;22283;42.748;12.732;2022-09-09T23:06:21;98022.06;;;18.47;83.03
36242;BME280;22283;42.748;12.732;2022-09-09T23:11:25;98019.03;;;18.42;82.88
36242;BME280;22283;42.748;12.732;2022-09-09T23:16:31;98012.34;;;18.46;82.83
36242;BME280;22283;42.748;12.732;2022-09-09T23:21:33;98008.97;;;18.36;84.45
36242;BME280;22283;42.748;12.732;2022-09-09T23:26:33;98012.84;;;18.33;83.40
36242;BME280;22283;42.748;12.732;2022-09-09T23:31:34;98015.16;;;18.28;83.63
36242;BME280;22283;42.748;12.732;2022-09-09T23:36:39;98005.28;;;18.37;82.91
36242;BME280;22283;42.748;12.732;2022-09-09T23:41:40;98007.94;;;18.29;83.39
36242;BME280;22283;42.748;12.732;2022-09-09T23:46:41;97988.56;;;18.35;83.67
36242;BME280;22283;42.748;12.732;2022-09-09T23:51:42;97996.28;;;18.38;83.74
36242;BME280;22283;42.748;12.732;2022-09-09T23:56:43;97999.25;;;18.27;84.30
